Main page
METAR-TAF:

METAR-TAF

Airports :

Belgrade Nikola Tesla Airport

Belgrade, Serbia

latitude: 44-49N, longitude: 020-17E, elevation: 96 m

Current weather observation

The report was made 39 minutes ago, at 20:00 UTC
Wind 2 kt from variable directions
Temperature 15°C
Humidity 29%
Pressure 1020 hPa
Visibility 10 km or more
no clouds below 1500 m and no cumulonimbus

METAR: LYBE 092000Z VRB02KT CAVOK 15/M03 Q1020 NOSIG

Time: 22:39 (20:39 UTC)

Forecast

The report was made 3 hours and 39 minutes ago, at 17:00 UTC
Forecast valid from 09 at 18 UTC to 10 at 18 UTC
Wind 5 kt from the North/Northeast
Visibility 10 km or more
no clouds below 1500 m and no cumulonimbus
Becoming
from 10 at 07 UTC to 10 at 09 UTC
Wind 12 kt from the Northwest
Becoming
from 10 at 16 UTC to 10 at 18 UTC
Wind 6 kt from the North/Northeast

TAF: LYBE 091700Z 0918/1018 02005KT CAVOK TX24/1013Z TN05/1004Z BECMG 1007/1009 32012KT BECMG 1016/1018 02006KT

Weather observations and forecasts of more than 4000 airports (METAR and TAF reports).

The available stations are represented by yellow and red dots on the map.

Hover mouse over dot to see the name of the station.

Then click to see weather observations and forecasts.

To change the map : click on the green buttons with a black cross to zoom in, on the green button with a dash to zoom out, or on the green arrows for adjacent maps.


METAR-TAF: